sensor_id;sensor_type;location;lat;lon;timestamp;temperature;humidity
5705;DHT22;2877;48.238;11.160;2024-03-22T00:00:55;5.00;99.90
5705;DHT22;2877;48.238;11.160;2024-03-22T00:03:20;4.90;99.90
5705;DHT22;2877;48.238;11.160;2024-03-22T00:05:46;4.90;99.90
5705;DHT22;2877;48.238;11.160;2024-03-22T00:08:11;4.90;99.90
5705;DHT22;2877;48.238;11.160;2024-03-22T00:10:37;4.90;99.90
5705;DHT22;2877;48.238;11.160;2024-03-22T00:13:03;4.80;99.90
5705;DHT22;2877;48.238;11.160;2024-03-22T00:15:28;4.70;99.90
5705;DHT22;2877;48.238;11.160;2024-03-22T00:17:54;4.70;99.90
5705;DHT22;2877;48.238;11.160;2024-03-22T00:20:19;4.70;99.90
5705;DHT22;2877;48.238;11.160;2024-03-22T00:22:45;4.70;99.90
5705;DHT22;2877;48.238;11.160;2024-03-22T00:25:10;4.60;99.90
5705;DHT22;2877;48.238;11.160;2024-03-22T00:27:36;4.60;99.90
5705;DHT22;2877;48.238;11.160;2024-03-22T00:30:02;4.50;99.90
5705;DHT22;2877;48.238;11.160;2024-03-22T00:32:27;4.50;99.90
5705;DHT22;2877;48.238;11.160;2024-03-22T00:34:53;4.50;99.90
5705;DHT22;2877;48.238;11.160;2024-03-22T00:37:18;4.50;99.90
5705;DHT22;2877;48.238;11.160;2024-03-22T00:39:44;4.50;99.90
5705;DHT22;2877;48.238;11.160;2024-03-22T00:42:09;4.70;99.90
5705;DHT22;2877;48.238;11.160;2024-03-22T00:44:35;4.70;99.90
5705;DHT22;2877;48.238;11.160;2024-03-22T00:47:01;4.70;99.90
5705;DHT22;2877;48.238;11.160;2024-03-22T00:49:29;4.70;99.90
5705;DHT22;2877;48.238;11.160;2024-03-22T00:51:54;4.80;99.90
5705;DHT22;2877;48.238;11.160;2024-03-22T00:54:22;4.90;99.90
5705;DHT22;2877;48.238;11.160;2024-03-22T00:56:47;4.80;99.90
5705;DHT22;2877;48.238;11.160;2024-03-22T00:59:13;4.70;99.90
5705;DHT22;2877;48.238;11.160;2024-03-22T01:01:38;4.60;99.90
5705;DHT22;2877;48.238;11.160;2024-03-22T01:04:04;4.50;99.90
5705;DHT22;2877;48.238;11.160;2024-03-22T01:06:29;4.50;99.90
5705;DHT22;2877;48.238;11.160;2024-03-22T01:08:55;4.50;99.90
5705;DHT22;2877;48.238;11.160;2024-03-22T01:11:21;4.40;99.90
5705;DHT22;2877;48.238;11.160;2024-03-22T01:13:46;4.40;99.90
5705;DHT22;2877;48.238;11.160;2024-03-22T01:16:12;4.40;99.90
5705;DHT22;2877;48.238;11.160;2024-03-22T01:18:37;4.50;99.90
5705;DHT22;2877;48.238;11.160;2024-03-22T01:21:03;4.50;99.90
5705;DHT22;2877;48.238;11.160;2024-03-22T01:23:29;4.50;99.90
5705;DHT22;2877;48.238;11.160;2024-03-22T01:25:54;4.50;99.90
5705;DHT22;2877;48.238;11.160;2024-03-22T01:28:20;4.40;99.90
5705;DHT22;2877;48.238;11.160;2024-03-22T01:30:45;4.40;99.90
5705;DHT22;2877;48.238;11.160;2024-03-22T01:33:11;4.60;99.90
5705;DHT22;2877;48.238;11.160;2024-03-22T01:35:36;4.60;99.90
5705;DHT22;2877;48.238;11.160;2024-03-22T01:38:02;4.70;99.90
5705;DHT22;2877;48.238;11.160;2024-03-22T01:40:28;4.70;99.90
5705;DHT22;2877;48.238;11.160;2024-03-22T01:42:55;4.70;99.90
5705;DHT22;2877;48.238;11.160;2024-03-22T01:45:21;4.70;99.90
5705;DHT22;2877;48.238;11.160;2024-03-22T01:47:52;4.70;99.90
5705;DHT22;2877;48.238;11.160;2024-03-22T01:50:20;4.70;99.90
5705;DHT22;2877;48.238;11.160;2024-03-22T01:52:46;4.60;99.90
5705;DHT22;2877;48.238;11.160;2024-03-22T01:55:12;4.50;99.90
5705;DHT22;2877;48.238;11.160;2024-03-22T01:57:38;4.50;99.90
5705;DHT22;2877;48.238;11.160;2024-03-22T02:00:04;4.40;99.90
5705;DHT22;2877;48.238;11.160;2024-03-22T02:02:30;4.30;99.90
5705;DHT22;2877;48.238;11.160;2024-03-22T02:04:56;4.20;99.90
5705;DHT22;2877;48.238;11.160;2024-03-22T02:07:22;4.20;99.90
5705;DHT22;2877;48.238;11.160;2024-03-22T02:09:48;4.10;99.90
5705;DHT22;2877;48.238;11.160;2024-03-22T02:12:13;4.00;99.90
5705;DHT22;2877;48.238;11.160;2024-03-22T02:14:39;4.00;99.90
5705;DHT22;2877;48.238;11.160;2024-03-22T02:17:05;4.00;99.90
5705;DHT22;2877;48.238;11.160;2024-03-22T02:19:30;4.20;99.90
5705;DHT22;2877;48.238;11.160;2024-03-22T02:21:56;4.20;99.90
5705;DHT22;2877;48.238;11.160;2024-03-22T02:24:21;4.20;99.90
5705;DHT22;2877;48.238;11.160;2024-03-22T02:26:47;4.20;99.90
5705;DHT22;2877;48.238;11.160;2024-03-22T02:29:12;4.10;99.90
5705;DHT22;2877;48.238;11.160;2024-03-22T02:31:38;4.00;99.90
5705;DHT22;2877;48.238;11.160;2024-03-22T02:34:03;4.00;99.90
5705;DHT22;2877;48.238;11.160;2024-03-22T02:36:29;3.90;99.90
5705;DHT22;2877;48.238;11.160;2024-03-22T02:38:55;3.80;99.90
5705;DHT22;2877;48.238;11.160;2024-03-22T02:41:21;3.80;99.90
5705;DHT22;2877;48.238;11.160;2024-03-22T02:43:47;3.80;99.90
5705;DHT22;2877;48.238;11.160;2024-03-22T02:46:12;3.80;99.90
5705;DHT22;2877;48.238;11.160;2024-03-22T02:48:38;3.70;99.90
5705;DHT22;2877;48.238;11.160;2024-03-22T02:51:03;3.70;99.90
5705;DHT22;2877;48.238;11.160;2024-03-22T02:53:29;3.60;99.90
5705;DHT22;2877;48.238;11.160;2024-03-22T02:55:55;3.50;99.90
5705;DHT22;2877;48.238;11.160;2024-03-22T02:58:20;3.50;99.90
5705;DHT22;2877;48.238;11.160;2024-03-22T03:00:46;3.50;99.90
5705;DHT22;2877;48.238;11.160;2024-03-22T03:03:11;3.50;99.90
5705;DHT22;2877;48.238;11.160;2024-03-22T03:05:37;3.40;99.90
5705;DHT22;2877;48.238;11.160;2024-03-22T03:08:03;3.30;99.90
5705;DHT22;2877;48.238;11.160;2024-03-22T03:10:29;3.20;99.90
5705;DHT22;2877;48.238;11.160;2024-03-22T03:12:55;3.20;99.90
5705;DHT22;2877;48.238;11.160;2024-03-22T03:15:21;3.20;99.90
5705;DHT22;2877;48.238;11.160;2024-03-22T03:17:46;3.20;99.90
5705;DHT22;2877;48.238;11.160;2024-03-22T03:20:12;3.20;99.90
5705;DHT22;2877;48.238;11.160;2024-03-22T03:22:39;3.20;99.90
5705;DHT22;2877;48.238;11.160;2024-03-22T03:25:05;3.20;99.90
5705;DHT22;2877;48.238;11.160;2024-03-22T03:27:31;3.30;99.90
5705;DHT22;2877;48.238;11.160;2024-03-22T03:29:56;3.30;99.90
5705;DHT22;2877;48.238;11.160;2024-03-22T03:32:22;3.30;99.90
5705;DHT22;2877;48.238;11.160;2024-03-22T03:34:47;3.30;99.90
5705;DHT22;2877;48.238;11.160;2024-03-22T03:37:14;3.50;99.90
5705;DHT22;2877;48.238;11.160;2024-03-22T03:39:39;3.60;99.90
5705;DHT22;2877;48.238;11.160;2024-03-22T03:42:05;3.70;99.90
5705;DHT22;2877;48.238;11.160;2024-03-22T03:44:31;3.80;99.90
5705;DHT22;2877;48.238;11.160;2024-03-22T03:46:56;3.70;99.90
5705;DHT22;2877;48.238;11.160;2024-03-22T03:49:22;3.60;99.90
5705;DHT22;2877;48.238;11.160;2024-03-22T03:51:47;3.50;99.90
5705;DHT22;2877;48.238;11.160;2024-03-22T03:54:13;3.60;99.90
5705;DHT22;2877;48.238;11.160;2024-03-22T03:56:38;3.60;99.90
5705;DHT22;2877;48.238;11.160;2024-03-22T03:59:04;3.50;99.90
5705;DHT22;2877;48.238;11.160;2024-03-22T04:01:29;3.50;99.90
5705;DHT22;2877;48.238;11.160;2024-03-22T04:03:55;3.50;99.90
5705;DHT22;2877;48.238;11.160;2024-03-22T04:06:20;3.50;99.90
5705;DHT22;2877;48.238;11.160;2024-03-22T04:08:46;3.50;99.90
5705;DHT22;2877;48.238;11.160;2024-03-22T04:11:11;3.40;99.90
5705;DHT22;2877;48.238;11.160;2024-03-22T04:13:37;3.30;99.90
5705;DHT22;2877;48.238;11.160;2024-03-22T04:16:03;3.20;99.90
5705;DHT22;2877;48.238;11.160;2024-03-22T04:18:28;3.10;99.90
5705;DHT22;2877;48.238;11.160;2024-03-22T04:20:57;3.10;99.90
5705;DHT22;2877;48.238;11.160;2024-03-22T04:23:24;3.00;99.90
5705;DHT22;2877;48.238;11.160;2024-03-22T04:25:57;2.90;99.90
5705;DHT22;2877;48.238;11.160;2024-03-22T04:28:30;2.90;99.90
5705;DHT22;2877;48.238;11.160;2024-03-22T04:30:59;2.90;99.90
5705;DHT22;2877;48.238;11.160;2024-03-22T04:33:25;2.80;99.90
5705;DHT22;2877;48.238;11.160;2024-03-22T04:35:51;2.80;99.90
5705;DHT22;2877;48.238;11.160;2024-03-22T04:38:17;2.70;99.90
5705;DHT22;2877;48.238;11.160;2024-03-22T04:40:42;2.70;99.90
5705;DHT22;2877;48.238;11.160;2024-03-22T04:43:08;2.70;99.90
5705;DHT22;2877;48.238;11.160;2024-03-22T04:45:34;2.70;99.90
5705;DHT22;2877;48.238;11.160;2024-03-22T04:48:01;2.80;99.90
5705;DHT22;2877;48.238;11.160;2024-03-22T04:50:27;2.80;99.90
5705;DHT22;2877;48.238;11.160;2024-03-22T04:52:53;2.80;99.90
5705;DHT22;2877;48.238;11.160;2024-03-22T04:55:18;2.90;99.90
5705;DHT22;2877;48.238;11.160;2024-03-22T04:57:44;2.90;99.90
5705;DHT22;2877;48.238;11.160;2024-03-22T05:00:10;2.90;99.90
5705;DHT22;2877;48.238;11.160;2024-03-22T05:02:35;2.90;99.90
5705;DHT22;2877;48.238;11.160;2024-03-22T05:05:01;2.80;99.90
5705;DHT22;2877;48.238;11.160;2024-03-22T05:07:26;2.80;99.90
5705;DHT22;2877;48.238;11.160;2024-03-22T05:09:52;2.80;99.90
5705;DHT22;2877;48.238;11.160;2024-03-22T05:12:18;2.80;99.90
5705;DHT22;2877;48.238;11.160;2024-03-22T05:14:43;2.80;99.90
5705;DHT22;2877;48.238;11.160;2024-03-22T05:17:09;2.90;99.90
5705;DHT22;2877;48.238;11.160;2024-03-22T05:19:34;2.90;99.90
5705;DHT22;2877;48.238;11.160;2024-03-22T05:22:00;3.00;99.90
5705;DHT22;2877;48.238;11.160;2024-03-22T05:24:26;3.00;99.90
5705;DHT22;2877;48.238;11.160;2024-03-22T05:26:52;3.10;99.90
5705;DHT22;2877;48.238;11.160;2024-03-22T05:29:18;3.10;99.90
5705;DHT22;2877;48.238;11.160;2024-03-22T05:31:48;3.10;99.90
5705;DHT22;2877;48.238;11.160;2024-03-22T05:34:15;3.20;99.90
5705;DHT22;2877;48.238;11.160;2024-03-22T05:36:41;3.10;99.90
5705;DHT22;2877;48.238;11.160;2024-03-22T05:39:07;3.10;99.90
5705;DHT22;2877;48.238;11.160;2024-03-22T05:41:33;3.10;99.90
5705;DHT22;2877;48.238;11.160;2024-03-22T05:43:58;3.10;99.90
5705;DHT22;2877;48.238;11.160;2024-03-22T05:46:24;3.10;99.90
5705;DHT22;2877;48.238;11.160;2024-03-22T05:48:50;3.20;99.90
5705;DHT22;2877;48.238;11.160;2024-03-22T05:51:17;3.30;99.90
5705;DHT22;2877;48.238;11.160;2024-03-22T05:53:43;3.30;99.90
5705;DHT22;2877;48.238;11.160;2024-03-22T05:56:08;3.40;99.90
5705;DHT22;2877;48.238;11.160;2024-03-22T05:58:34;3.50;99.90
5705;DHT22;2877;48.238;11.160;2024-03-22T06:01:02;3.50;99.90
5705;DHT22;2877;48.238;11.160;2024-03-22T06:03:28;3.50;99.90
5705;DHT22;2877;48.238;11.160;2024-03-22T06:05:54;3.40;99.90
5705;DHT22;2877;48.238;11.160;2024-03-22T06:08:22;3.50;99.90
5705;DHT22;2877;48.238;11.160;2024-03-22T06:10:48;3.70;99.90
5705;DHT22;2877;48.238;11.160;2024-03-22T06:13:13;3.90;99.90
5705;DHT22;2877;48.238;11.160;2024-03-22T06:15:42;3.90;99.90
5705;DHT22;2877;48.238;11.160;2024-03-22T06:18:11;4.00;99.90
5705;DHT22;2877;48.238;11.160;2024-03-22T06:20:36;4.10;99.90
5705;DHT22;2877;48.238;11.160;2024-03-22T06:23:02;4.30;99.90
5705;DHT22;2877;48.238;11.160;2024-03-22T06:25:27;4.40;99.90
5705;DHT22;2877;48.238;11.160;2024-03-22T06:27:53;4.70;99.90
5705;DHT22;2877;48.238;11.160;2024-03-22T06:30:18;4.90;99.90
5705;DHT22;2877;48.238;11.160;2024-03-22T06:32:44;5.10;99.90
5705;DHT22;2877;48.238;11.160;2024-03-22T06:35:09;5.30;99.90
5705;DHT22;2877;48.238;11.160;2024-03-22T06:37:37;5.40;99.90
5705;DHT22;2877;48.238;11.160;2024-03-22T06:40:03;5.50;99.90
5705;DHT22;2877;48.238;11.160;2024-03-22T06:42:30;5.60;99.90
5705;DHT22;2877;48.238;11.160;2024-03-22T06:44:56;5.70;99.90
5705;DHT22;2877;48.238;11.160;2024-03-22T06:47:21;5.90;99.90
5705;DHT22;2877;48.238;11.160;2024-03-22T06:49:49;6.00;99.90
5705;DHT22;2877;48.238;11.160;2024-03-22T06:52:14;6.10;99.90
5705;DHT22;2877;48.238;11.160;2024-03-22T06:54:40;6.20;99.90
5705;DHT22;2877;48.238;11.160;2024-03-22T06:57:06;6.30;99.90
5705;DHT22;2877;48.238;11.160;2024-03-22T06:59:32;6.40;99.90
5705;DHT22;2877;48.238;11.160;2024-03-22T07:01:57;6.50;99.90
5705;DHT22;2877;48.238;11.160;2024-03-22T07:04:23;6.60;99.90
5705;DHT22;2877;48.238;11.160;2024-03-22T07:06:48;6.80;99.90
5705;DHT22;2877;48.238;11.160;2024-03-22T07:09:14;7.00;99.90
5705;DHT22;2877;48.238;11.160;2024-03-22T07:11:40;7.10;99.90
5705;DHT22;2877;48.238;11.160;2024-03-22T07:14:05;7.30;99.90
5705;DHT22;2877;48.238;11.160;2024-03-22T07:16:31;7.50;99.90
5705;DHT22;2877;48.238;11.160;2024-03-22T07:18:56;7.70;99.90
5705;DHT22;2877;48.238;11.160;2024-03-22T07:21:22;7.90;99.90
5705;DHT22;2877;48.238;11.160;2024-03-22T07:23:47;8.00;99.90
5705;DHT22;2877;48.238;11.160;2024-03-22T07:26:13;8.20;99.90
5705;DHT22;2877;48.238;11.160;2024-03-22T07:28:38;8.30;99.90
5705;DHT22;2877;48.238;11.160;2024-03-22T07:31:04;8.40;99.90
5705;DHT22;2877;48.238;11.160;2024-03-22T07:33:31;8.50;99.90
5705;DHT22;2877;48.238;11.160;2024-03-22T07:36:01;8.60;99.90
5705;DHT22;2877;48.238;11.160;2024-03-22T07:38:26;8.70;99.90
5705;DHT22;2877;48.238;11.160;2024-03-22T07:40:52;8.80;99.90
5705;DHT22;2877;48.238;11.160;2024-03-22T07:43:18;9.00;99.90
5705;DHT22;2877;48.238;11.160;2024-03-22T07:45:43;9.10;99.90
5705;DHT22;2877;48.238;11.160;2024-03-22T07:48:09;9.20;99.90
5705;DHT22;2877;48.238;11.160;2024-03-22T07:50:35;9.40;99.90
5705;DHT22;2877;48.238;11.160;2024-03-22T07:53:01;9.50;99.90
5705;DHT22;2877;48.238;11.160;2024-03-22T07:55:27;9.70;99.90
5705;DHT22;2877;48.238;11.160;2024-03-22T07:57:52;9.80;99.90
5705;DHT22;2877;48.238;11.160;2024-03-22T08:00:18;9.80;99.90
5705;DHT22;2877;48.238;11.160;2024-03-22T08:02:43;9.90;99.90
5705;DHT22;2877;48.238;11.160;2024-03-22T08:05:09;10.10;99.90
5705;DHT22;2877;48.238;11.160;2024-03-22T08:07:35;10.20;99.90
5705;DHT22;2877;48.238;11.160;2024-03-22T08:10:00;10.30;99.90
5705;DHT22;2877;48.238;11.160;2024-03-22T08:12:27;10.40;99.90
5705;DHT22;2877;48.238;11.160;2024-03-22T08:14:53;10.50;99.90
5705;DHT22;2877;48.238;11.160;2024-03-22T08:17:19;10.60;99.90
5705;DHT22;2877;48.238;11.160;2024-03-22T08:19:44;10.60;99.90
5705;DHT22;2877;48.238;11.160;2024-03-22T08:22:10;10.60;99.90
5705;DHT22;2877;48.238;11.160;2024-03-22T08:24:36;10.60;99.90
5705;DHT22;2877;48.238;11.160;2024-03-22T08:27:03;10.60;99.90
5705;DHT22;2877;48.238;11.160;2024-03-22T08:29:29;10.60;99.90
5705;DHT22;2877;48.238;11.160;2024-03-22T08:31:54;10.70;99.90
5705;DHT22;2877;48.238;11.160;2024-03-22T08:34:21;10.80;99.90
5705;DHT22;2877;48.238;11.160;2024-03-22T08:36:46;10.90;99.90
5705;DHT22;2877;48.238;11.160;2024-03-22T08:39:12;10.90;99.90
5705;DHT22;2877;48.238;11.160;2024-03-22T08:41:38;10.90;99.90
5705;DHT22;2877;48.238;11.160;2024-03-22T08:44:03;11.00;99.90
5705;DHT22;2877;48.238;11.160;2024-03-22T08:46:29;11.20;99.90
5705;DHT22;2877;48.238;11.160;2024-03-22T08:48:57;11.30;99.90
5705;DHT22;2877;48.238;11.160;2024-03-22T08:51:23;11.40;99.90
5705;DHT22;2877;48.238;11.160;2024-03-22T08:53:48;11.70;99.90
5705;DHT22;2877;48.238;11.160;2024-03-22T08:56:14;11.80;99.90
5705;DHT22;2877;48.238;11.160;2024-03-22T08:58:39;12.00;99.90
5705;DHT22;2877;48.238;11.160;2024-03-22T09:01:05;12.00;99.90
5705;DHT22;2877;48.238;11.160;2024-03-22T09:03:31;11.90;99.90
5705;DHT22;2877;48.238;11.160;2024-03-22T09:05:57;12.00;99.90
5705;DHT22;2877;48.238;11.160;2024-03-22T09:08:22;12.10;99.90
5705;DHT22;2877;48.238;11.160;2024-03-22T09:10:48;12.40;99.90
5705;DHT22;2877;48.238;11.160;2024-03-22T09:13:13;12.50;99.90
5705;DHT22;2877;48.238;11.160;2024-03-22T09:15:39;12.60;99.90
5705;DHT22;2877;48.238;11.160;2024-03-22T09:18:05;12.70;99.90
5705;DHT22;2877;48.238;11.160;2024-03-22T09:20:31;12.80;99.90
5705;DHT22;2877;48.238;11.160;2024-03-22T09:22:57;13.00;99.90
5705;DHT22;2877;48.238;11.160;2024-03-22T09:25:23;13.10;99.90
5705;DHT22;2877;48.238;11.160;2024-03-22T09:27:49;13.30;99.90
5705;DHT22;2877;48.238;11.160;2024-03-22T09:30:15;13.60;99.90
5705;DHT22;2877;48.238;11.160;2024-03-22T09:32:41;13.70;99.90
5705;DHT22;2877;48.238;11.160;2024-03-22T09:35:08;13.80;99.90
5705;DHT22;2877;48.238;11.160;2024-03-22T09:37:34;14.00;99.90
5705;DHT22;2877;48.238;11.160;2024-03-22T09:39:59;14.10;99.90
5705;DHT22;2877;48.238;11.160;2024-03-22T09:42:25;14.10;99.90
5705;DHT22;2877;48.238;11.160;2024-03-22T09:44:51;14.00;99.90
5705;DHT22;2877;48.238;11.160;2024-03-22T09:47:17;13.90;99.90
5705;DHT22;2877;48.238;11.160;2024-03-22T09:49:44;14.10;99.90
5705;DHT22;2877;48.238;11.160;2024-03-22T09:52:14;14.40;99.90
5705;DHT22;2877;48.238;11.160;2024-03-22T09:54:41;14.10;99.90
5705;DHT22;2877;48.238;11.160;2024-03-22T09:57:11;14.20;99.90
5705;DHT22;2877;48.238;11.160;2024-03-22T09:59:38;14.30;99.90
5705;DHT22;2877;48.238;11.160;2024-03-22T10:02:08;14.20;99.90
5705;DHT22;2877;48.238;11.160;2024-03-22T10:04:35;14.30;99.90
5705;DHT22;2877;48.238;11.160;2024-03-22T10:07:02;14.30;99.90
5705;DHT22;2877;48.238;11.160;2024-03-22T10:09:29;14.30;99.90
5705;DHT22;2877;48.238;11.160;2024-03-22T10:11:55;14.20;99.90
5705;DHT22;2877;48.238;11.160;2024-03-22T10:14:21;14.30;99.90
5705;DHT22;2877;48.238;11.160;2024-03-22T10:16:47;14.40;99.90
5705;DHT22;2877;48.238;11.160;2024-03-22T10:19:12;14.70;99.90
5705;DHT22;2877;48.238;11.160;2024-03-22T10:21:38;14.80;99.90
5705;DHT22;2877;48.238;11.160;2024-03-22T10:24:03;14.70;99.90
5705;DHT22;2877;48.238;11.160;2024-03-22T10:26:32;14.70;99.90
5705;DHT22;2877;48.238;11.160;2024-03-22T10:28:58;14.90;99.90
5705;DHT22;2877;48.238;11.160;2024-03-22T10:31:23;14.90;99.90
5705;DHT22;2877;48.238;11.160;2024-03-22T10:33:49;14.90;99.90
5705;DHT22;2877;48.238;11.160;2024-03-22T10:36:16;14.90;99.90
5705;DHT22;2877;48.238;11.160;2024-03-22T10:38:42;15.00;99.90
5705;DHT22;2877;48.238;11.160;2024-03-22T10:41:08;15.10;99.90
5705;DHT22;2877;48.238;11.160;2024-03-22T10:43:35;14.90;99.90
5705;DHT22;2877;48.238;11.160;2024-03-22T10:46:01;14.80;99.90
5705;DHT22;2877;48.238;11.160;2024-03-22T10:48:30;15.00;99.90
5705;DHT22;2877;48.238;11.160;2024-03-22T10:50:59;15.10;99.90
5705;DHT22;2877;48.238;11.160;2024-03-22T10:53:26;15.30;99.90
5705;DHT22;2877;48.238;11.160;2024-03-22T10:55:53;15.30;99.90
5705;DHT22;2877;48.238;11.160;2024-03-22T10:58:23;15.20;99.90
5705;DHT22;2877;48.238;11.160;2024-03-22T11:00:53;15.20;99.90
5705;DHT22;2877;48.238;11.160;2024-03-22T11:03:24;15.30;99.90
5705;DHT22;2877;48.238;11.160;2024-03-22T11:05:54;15.30;99.90
5705;DHT22;2877;48.238;11.160;2024-03-22T11:08:28;15.20;99.90
5705;DHT22;2877;48.238;11.160;2024-03-22T11:10:56;15.20;99.90
5705;DHT22;2877;48.238;11.160;2024-03-22T11:13:22;15.50;99.90
5705;DHT22;2877;48.238;11.160;2024-03-22T11:15:51;15.40;99.90
5705;DHT22;2877;48.238;11.160;2024-03-22T11:18:16;15.30;99.90
5705;DHT22;2877;48.238;11.160;2024-03-22T11:20:43;15.30;99.90
5705;DHT22;2877;48.238;11.160;2024-03-22T11:23:09;15.40;99.90
5705;DHT22;2877;48.238;11.160;2024-03-22T11:25:34;15.50;99.90
5705;DHT22;2877;48.238;11.160;2024-03-22T11:28:00;15.60;99.90
5705;DHT22;2877;48.238;11.160;2024-03-22T11:30:31;15.80;99.90
5705;DHT22;2877;48.238;11.160;2024-03-22T11:32:57;15.90;99.90
5705;DHT22;2877;48.238;11.160;2024-03-22T11:35:23;16.00;99.90
5705;DHT22;2877;48.238;11.160;2024-03-22T11:37:50;16.00;99.90
5705;DHT22;2877;48.238;11.160;2024-03-22T11:40:16;16.10;99.90
5705;DHT22;2877;48.238;11.160;2024-03-22T11:42:47;16.20;99.90
5705;DHT22;2877;48.238;11.160;2024-03-22T11:45:17;16.30;99.90
5705;DHT22;2877;48.238;11.160;2024-03-22T11:47:45;16.50;99.90
5705;DHT22;2877;48.238;11.160;2024-03-22T11:50:12;16.00;99.90
5705;DHT22;2877;48.238;11.160;2024-03-22T11:52:41;15.80;99.90
5705;DHT22;2877;48.238;11.160;2024-03-22T11:55:07;15.90;99.90
5705;DHT22;2877;48.238;11.160;2024-03-22T11:57:32;16.10;99.90
5705;DHT22;2877;48.238;11.160;2024-03-22T12:00:03;16.40;99.90
5705;DHT22;2877;48.238;11.160;2024-03-22T12:02:32;16.50;99.90
5705;DHT22;2877;48.238;11.160;2024-03-22T12:04:57;16.40;99.90
5705;DHT22;2877;48.238;11.160;2024-03-22T12:07:24;16.20;99.90
5705;DHT22;2877;48.238;11.160;2024-03-22T12:09:49;16.20;99.90
5705;DHT22;2877;48.238;11.160;2024-03-22T12:12:15;16.30;99.90
5705;DHT22;2877;48.238;11.160;2024-03-22T12:14:40;16.70;99.90
5705;DHT22;2877;48.238;11.160;2024-03-22T12:17:06;17.00;99.90
5705;DHT22;2877;48.238;11.160;2024-03-22T12:19:33;17.20;99.90
5705;DHT22;2877;48.238;11.160;2024-03-22T12:21:59;16.90;99.60
5705;DHT22;2877;48.238;11.160;2024-03-22T12:24:25;16.90;99.90
5705;DHT22;2877;48.238;11.160;2024-03-22T12:26:52;17.00;99.90
5705;DHT22;2877;48.238;11.160;2024-03-22T12:29:18;17.00;98.60
5705;DHT22;2877;48.238;11.160;2024-03-22T12:31:44;16.90;99.90
5705;DHT22;2877;48.238;11.160;2024-03-22T12:34:10;17.20;99.90
5705;DHT22;2877;48.238;11.160;2024-03-22T12:36:36;17.70;99.00
5705;DHT22;2877;48.238;11.160;2024-03-22T12:39:02;17.80;99.30
5705;DHT22;2877;48.238;11.160;2024-03-22T12:41:30;18.00;98.80
5705;DHT22;2877;48.238;11.160;2024-03-22T12:43:55;18.40;98.00
5705;DHT22;2877;48.238;11.160;2024-03-22T12:46:21;18.80;96.50
5705;DHT22;2877;48.238;11.160;2024-03-22T12:48:47;18.80;95.10
5705;DHT22;2877;48.238;11.160;2024-03-22T12:51:13;18.90;95.50
5705;DHT22;2877;48.238;11.160;2024-03-22T12:53:38;19.20;94.70
5705;DHT22;2877;48.238;11.160;2024-03-22T12:56:04;18.60;94.20
5705;DHT22;2877;48.238;11.160;2024-03-22T12:58:33;18.00;95.70
5705;DHT22;2877;48.238;11.160;2024-03-22T13:00:58;17.70;94.90
5705;DHT22;2877;48.238;11.160;2024-03-22T13:03:28;17.60;95.70
5705;DHT22;2877;48.238;11.160;2024-03-22T13:05:53;17.80;96.70
5705;DHT22;2877;48.238;11.160;2024-03-22T13:08:19;18.50;96.60
5705;DHT22;2877;48.238;11.160;2024-03-22T13:10:45;19.20;94.80
5705;DHT22;2877;48.238;11.160;2024-03-22T13:13:11;19.60;95.20
5705;DHT22;2877;48.238;11.160;2024-03-22T13:15:38;20.20;93.80
5705;DHT22;2877;48.238;11.160;2024-03-22T13:18:04;19.80;91.30
5705;DHT22;2877;48.238;11.160;2024-03-22T13:20:30;19.10;92.50
5705;DHT22;2877;48.238;11.160;2024-03-22T13:22:56;18.80;92.80
5705;DHT22;2877;48.238;11.160;2024-03-22T13:25:22;18.80;93.20
5705;DHT22;2877;48.238;11.160;2024-03-22T13:27:47;19.30;93.20
5705;DHT22;2877;48.238;11.160;2024-03-22T13:30:13;19.70;93.40
5705;DHT22;2877;48.238;11.160;2024-03-22T13:32:40;20.20;92.40
5705;DHT22;2877;48.238;11.160;2024-03-22T13:35:06;20.50;92.40
5705;DHT22;2877;48.238;11.160;2024-03-22T13:37:32;21.10;90.30
5705;DHT22;2877;48.238;11.160;2024-03-22T13:39:58;21.70;91.00
5705;DHT22;2877;48.238;11.160;2024-03-22T13:42:24;22.20;87.90
5705;DHT22;2877;48.238;11.160;2024-03-22T13:44:50;22.30;86.50
5705;DHT22;2877;48.238;11.160;2024-03-22T13:47:15;22.30;85.10
5705;DHT22;2877;48.238;11.160;2024-03-22T13:49:41;21.70;81.70
5705;DHT22;2877;48.238;11.160;2024-03-22T13:52:09;22.20;83.20
5705;DHT22;2877;48.238;11.160;2024-03-22T13:54:35;22.10;79.90
5705;DHT22;2877;48.238;11.160;2024-03-22T13:57:01;21.40;81.30
5705;DHT22;2877;48.238;11.160;2024-03-22T13:59:30;21.10;85.00
5705;DHT22;2877;48.238;11.160;2024-03-22T14:01:56;20.50;84.30
5705;DHT22;2877;48.238;11.160;2024-03-22T14:04:25;20.20;85.10
5705;DHT22;2877;48.238;11.160;2024-03-22T14:06:52;19.40;85.80
5705;DHT22;2877;48.238;11.160;2024-03-22T14:09:17;18.80;90.60
5705;DHT22;2877;48.238;11.160;2024-03-22T14:11:43;18.70;90.70
5705;DHT22;2877;48.238;11.160;2024-03-22T14:14:11;18.80;91.10
5705;DHT22;2877;48.238;11.160;2024-03-22T14:16:38;19.00;90.70
5705;DHT22;2877;48.238;11.160;2024-03-22T14:19:04;18.70;89.00
5705;DHT22;2877;48.238;11.160;2024-03-22T14:21:29;18.50;90.60
5705;DHT22;2877;48.238;11.160;2024-03-22T14:23:55;18.30;90.30
5705;DHT22;2877;48.238;11.160;2024-03-22T14:26:21;18.10;90.80
5705;DHT22;2877;48.238;11.160;2024-03-22T14:28:46;17.80;90.60
5705;DHT22;2877;48.238;11.160;2024-03-22T14:31:12;17.70;91.00
5705;DHT22;2877;48.238;11.160;2024-03-22T14:33:39;17.50;91.20
5705;DHT22;2877;48.238;11.160;2024-03-22T14:36:06;17.50;92.20
5705;DHT22;2877;48.238;11.160;2024-03-22T14:38:32;17.70;92.70
5705;DHT22;2877;48.238;11.160;2024-03-22T14:40:58;18.00;93.20
5705;DHT22;2877;48.238;11.160;2024-03-22T14:43:25;18.20;89.20
5705;DHT22;2877;48.238;11.160;2024-03-22T14:45:54;18.30;90.30
5705;DHT22;2877;48.238;11.160;2024-03-22T14:48:20;18.40;90.60
5705;DHT22;2877;48.238;11.160;2024-03-22T14:50:46;18.40;88.70
5705;DHT22;2877;48.238;11.160;2024-03-22T14:53:13;18.30;89.50
5705;DHT22;2877;48.238;11.160;2024-03-22T14:56:01;18.30;90.40
5705;DHT22;2877;48.238;11.160;2024-03-22T14:58:30;18.40;89.10
5705;DHT22;2877;48.238;11.160;2024-03-22T15:00:58;18.50;89.30
5705;DHT22;2877;48.238;11.160;2024-03-22T15:03:26;18.80;89.60
5705;DHT22;2877;48.238;11.160;2024-03-22T15:05:53;19.00;89.40
5705;DHT22;2877;48.238;11.160;2024-03-22T15:08:19;19.10;88.50
5705;DHT22;2877;48.238;11.160;2024-03-22T15:10:45;19.00;85.50
5705;DHT22;2877;48.238;11.160;2024-03-22T15:13:11;19.00;89.20
5705;DHT22;2877;48.238;11.160;2024-03-22T15:15:37;19.20;88.80
5705;DHT22;2877;48.238;11.160;2024-03-22T15:18:04;19.20;87.50
5705;DHT22;2877;48.238;11.160;2024-03-22T15:20:31;19.20;90.00
5705;DHT22;2877;48.238;11.160;2024-03-22T15:22:56;19.10;88.40
5705;DHT22;2877;48.238;11.160;2024-03-22T15:25:22;18.80;88.70
5705;DHT22;2877;48.238;11.160;2024-03-22T15:27:47;18.60;90.60
5705;DHT22;2877;48.238;11.160;2024-03-22T15:30:14;18.40;90.40
5705;DHT22;2877;48.238;11.160;2024-03-22T15:32:40;18.20;89.60
5705;DHT22;2877;48.238;11.160;2024-03-22T15:35:06;18.00;90.40
5705;DHT22;2877;48.238;11.160;2024-03-22T15:37:35;18.00;91.20
5705;DHT22;2877;48.238;11.160;2024-03-22T15:40:01;18.00;90.20
5705;DHT22;2877;48.238;11.160;2024-03-22T15:42:27;17.90;90.30
5705;DHT22;2877;48.238;11.160;2024-03-22T15:44:53;18.00;87.50
5705;DHT22;2877;48.238;11.160;2024-03-22T15:47:18;17.90;86.10